»·PEaware :: UAL1798 KSFO-KSAN

UAL1798 :: KSFO-KSAN

FLIGHT INFORMATION

Flight Status: Arrived
Operator:
United Airlines
More flights by this operator :: More flights under this callsign
Pilot: Colin A. (19898)
Aircraft: BOEING 737-200
(B732)
More flights by this aircraft type
Origin: KSFO San Francisco Intl
United States
Destination: KSAN San Diego Intl-Lindbergh
United States
More flights between these airports :: More routes between these airports
Route: +OFFSH1 MCKEY RZS LAX HUBRD1
File this flight plan on PilotEdge
Remarks: PBN / A1B2 DOF / 180807 REG / N275SB EET / KZLA0024 OPR / UAL RMK / TCAS SIMBRIEF
Altitude:
(Current/Filed)
29,000ft
Speed:
(Current/Filed)
450kts
Departed: 08-Aug-18 11:44 AM
Arrived: 08-Aug-18 01:04 PM
Distance/Time
Traveled:
387nm/1:20
Distance/Time
To Go:
Arrived

Flight Plot

Page will automatically refresh every two minutes.

Flight plan parsing failed; only flown route is shown


Map Options




Map Legend


Flown Route
Filed Route
Departure Airport
Arrival Airport
Navaid (VOR, NDB)
Fix

Horizontal Profiles

Position Reports

Time Latitude Longitude Heading Altitude Ground
Speed
08-Aug-18 11:32 37.618187 -122.384319 278 23ft 0kts
08-Aug-18 11:33 37.618187 -122.384319 278 23ft 0kts
08-Aug-18 11:34 37.618187 -122.384319 278 23ft 0kts
08-Aug-18 11:35 37.618187 -122.384319 278 23ft 0kts
08-Aug-18 11:36 37.618187 -122.384319 278 23ft 0kts
08-Aug-18 11:37 37.618187 -122.384319 278 23ft 0kts
08-Aug-18 11:38 37.618167 -122.383865 273 23ft 1kts
08-Aug-18 11:39 37.618371 -122.383318 207 23ft 2kts
08-Aug-18 11:40 37.618492 -122.383237 207 23ft 0kts
08-Aug-18 11:41 37.618492 -122.383237 207 23ft 0kts
08-Aug-18 11:42 37.618492 -122.383237 207 23ft 0kts
08-Aug-18 11:43 37.618492 -122.383237 207 23ft 0kts
08-Aug-18 11:44 37.619320 -122.382130 45 23ft 16kts
08-Aug-18 11:45 37.612849 -122.382242 209 23ft 44kts
08-Aug-18 11:46 37.608504 -122.383841 116 23ft 0kts
08-Aug-18 11:47 37.608503 -122.383838 116 23ft 0kts
08-Aug-18 11:48 37.608472 -122.383755 114 23ft 1kts
08-Aug-18 11:49 37.613835 -122.378919 27 23ft 92kts
08-Aug-18 11:50 37.658610 -122.365955 343 1510ft 232kts
08-Aug-18 11:51 37.710480 -122.407474 281 3643ft 246kts
08-Aug-18 11:52 37.674518 -122.478829 215 4971ft 254kts
08-Aug-18 11:53 37.615325 -122.532839 216 7355ft 293kts
08-Aug-18 11:54 37.553465 -122.591956 216 8857ft 257kts
08-Aug-18 11:55 37.490947 -122.652471 216 10819ft 318kts
08-Aug-18 11:56 37.405851 -122.705856 180 13596ft 376kts
08-Aug-18 11:57 37.307818 -122.656369 152 16838ft 386kts
08-Aug-18 11:58 37.206420 -122.616048 173 20018ft 380kts
08-Aug-18 11:59 37.102327 -122.606203 178 22843ft 373kts
08-Aug-18 12:00 36.994492 -122.587697 170 24473ft 405kts
08-Aug-18 12:01 36.882977 -122.552358 167 26330ft 420kts
08-Aug-18 12:02 36.769580 -122.514713 170 28264ft 423kts
08-Aug-18 12:03 36.651331 -122.483765 174 29065ft 440kts
08-Aug-18 12:04 36.531049 -122.457578 175 29018ft 442kts
08-Aug-18 12:05 36.409344 -122.427858 167 29011ft 453kts
08-Aug-18 12:06 36.313878 -122.319737 133 29019ft 481kts
08-Aug-18 12:07 36.232101 -122.187740 132 29012ft 485kts
08-Aug-18 12:08 36.151161 -122.053932 132 29010ft 488kts
08-Aug-18 12:09 36.070129 -121.918726 132 29007ft 490kts
08-Aug-18 12:10 35.989062 -121.782487 129 29001ft 494kts
08-Aug-18 12:11 35.890625 -121.673743 155 29000ft 472kts
08-Aug-18 12:12 35.776348 -121.594388 158 28988ft 470kts
08-Aug-18 12:13 35.661895 -121.518002 158 28976ft 465kts
08-Aug-18 12:14 35.558800 -121.422487 133 28975ft 482kts
08-Aug-18 12:15 35.489103 -121.281479 126 28963ft 483kts
08-Aug-18 12:16 35.423616 -121.138156 125 28962ft 480kts
08-Aug-18 12:17 35.344483 -121.012263 130 28968ft 471kts
08-Aug-18 12:18 35.282526 -120.871750 113 28970ft 482kts
08-Aug-18 12:19 35.215356 -120.736469 139 28972ft 456kts
08-Aug-18 12:20 35.122741 -120.632695 148 28970ft 455kts
08-Aug-18 12:21 35.032300 -120.520084 137 28974ft 474kts
08-Aug-18 12:22 34.953871 -120.388937 134 28969ft 481kts
08-Aug-18 12:23 34.866683 -120.266877 143 28969ft 475kts
08-Aug-18 12:24 34.776154 -120.148058 138 28961ft 485kts
08-Aug-18 12:25 34.690361 -120.020796 140 28944ft 485kts
08-Aug-18 12:26 34.600489 -119.898544 137 28939ft 489kts
08-Aug-18 12:27 34.515905 -119.770341 128 28935ft 493kts
08-Aug-18 12:28 34.452534 -119.623581 122 28932ft 491kts
08-Aug-18 12:29 34.395956 -119.475408 124 29111ft 479kts
08-Aug-18 12:30 34.332890 -119.335134 128 29112ft 470kts
08-Aug-18 12:31 34.267777 -119.197694 126 29109ft 473kts
08-Aug-18 12:32 34.207801 -119.055695 124 29100ft 476kts
08-Aug-18 12:33 34.146357 -118.913919 126 29104ft 474kts
08-Aug-18 12:34 34.083468 -118.774262 125 27766ft 463kts
08-Aug-18 12:35 34.030171 -118.650974 126 25689ft 428kts
08-Aug-18 12:36 33.975147 -118.526689 124 24136ft 405kts
08-Aug-18 12:37 33.923714 -118.411357 129 24210ft 388kts
08-Aug-18 12:38 33.860922 -118.301207 134 24203ft 412kts
08-Aug-18 12:39 33.792022 -118.190754 134 24197ft 394kts
08-Aug-18 12:40 33.729234 -118.088216 134 24080ft 392kts
08-Aug-18 12:41 33.657826 -117.979317 136 24100ft 435kts
08-Aug-18 12:42 33.581928 -117.868105 136 22663ft 403kts
08-Aug-18 12:43 33.513721 -117.771454 139 20489ft 370kts
08-Aug-18 12:44 33.441933 -117.680017 140 18433ft 376kts
08-Aug-18 12:45 33.369672 -117.590643 140 16482ft 369kts
08-Aug-18 12:46 33.298347 -117.504995 140 15125ft 348kts
08-Aug-18 12:47 33.233307 -117.427153 140 15123ft 328kts
08-Aug-18 12:48 33.161788 -117.348264 154 15104ft 363kts
08-Aug-18 12:49 33.072446 -117.331159 176 15104ft 305kts
08-Aug-18 12:50 32.993846 -117.295822 164 14006ft 301kts
08-Aug-18 12:51 32.913812 -117.271848 166 11803ft 295kts
08-Aug-18 12:52 32.851721 -117.213029 113 9450ft 309kts
08-Aug-18 12:53 32.822762 -117.124523 112 7377ft 268kts
08-Aug-18 12:54 32.796353 -117.044203 112 5520ft 258kts
08-Aug-18 12:55 32.772084 -116.971126 111 5204ft 222kts
08-Aug-18 12:56 32.749429 -116.902692 112 5196ft 217kts
08-Aug-18 12:57 32.722401 -116.842770 149 5174ft 197kts
08-Aug-18 12:58 32.677571 -116.868600 242 4427ft 209kts
08-Aug-18 12:59 32.674780 -116.940027 285 3762ft 244kts
08-Aug-18 13:00 32.691367 -117.008583 285 3577ft 198kts
08-Aug-18 13:01 32.706532 -117.071166 282 2485ft 204kts
08-Aug-18 13:02 32.717374 -117.121043 286 1313ft 128kts
08-Aug-18 13:03 32.726142 -117.158808 285 489ft 117kts
08-Aug-18 13:04 32.734032 -117.191525 286 26ft 50kts
08-Aug-18 13:05 32.735017 -117.198567 246 26ft 0kts
08-Aug-18 13:06 32.735016 -117.198570 246 26ft 0kts
08-Aug-18 13:07 32.734859 -117.199202 265 26ft 13kts
08-Aug-18 13:08 32.735882 -117.203326 286 26ft 16kts
08-Aug-18 13:09 32.734333 -117.205547 190 26ft 14kts
08-Aug-18 13:10 32.732497 -117.205393 170 26ft 0kts
08-Aug-18 13:11 32.732497 -117.205393 170 26ft 0kts
08-Aug-18 13:12 32.732497 -117.205393 170 26ft 0kts
08-Aug-18 13:13 32.732497 -117.205393 170 26ft 0kts
08-Aug-18 13:14 32.732497 -117.205393 170 26ft 0kts

Navigation Log

Ident Type
Flight plan parsing failed, navigation log unavailable